createdAt,value
2023-02-22T00:01:51.124Z,99667.44
2023-02-22T00:04:21.261Z,99672.69
2023-02-22T00:06:49.060Z,99666.97
2023-02-22T00:09:20.765Z,99674.94
2023-02-22T00:11:48.875Z,99674.13
2023-02-22T00:14:18.043Z,99673.72
2023-02-22T00:16:44.840Z,99673.91
2023-02-22T00:19:11.463Z,99674.47
2023-02-22T00:21:38.150Z,99679.63
2023-02-22T00:24:23.112Z,99678.41
2023-02-22T00:26:57.661Z,99669.69
2023-02-22T00:29:25.556Z,99677.09
2023-02-22T00:31:52.339Z,99671.91
2023-02-22T00:34:19.045Z,99678.34
2023-02-22T00:36:49.667Z,99677.25
2023-02-22T00:39:16.440Z,99673.78
2023-02-22T00:41:43.412Z,99674.88
2023-02-22T00:44:10.437Z,99667.84
2023-02-22T00:46:37.240Z,99664.91
2023-02-22T00:49:05.318Z,99652.72
2023-02-22T00:51:32.065Z,99655.47
2023-02-22T00:53:58.692Z,99664.19
2023-02-22T00:56:25.433Z,99659.53
2023-02-22T00:58:52.113Z,99658.56
2023-02-22T01:01:19.066Z,99669.66
2023-02-22T01:03:46.061Z,99671.16
2023-02-22T01:06:12.943Z,99670.84
2023-02-22T01:08:44.399Z,99664.28
2023-02-22T01:11:11.008Z,99664.56
2023-02-22T01:13:38.389Z,99669.38
2023-02-22T01:16:08.369Z,99663.94
2023-02-22T01:18:38.104Z,99667.22
2023-02-22T01:21:06.057Z,99658.53
2023-02-22T01:23:33.250Z,99669.31
2023-02-22T01:25:59.847Z,99673.38
2023-02-22T01:28:26.752Z,99662.59
2023-02-22T01:30:56.218Z,99666.09
2023-02-22T01:33:23.037Z,99667.84
2023-02-22T01:35:51.023Z,99658.44
2023-02-22T01:38:17.690Z,99660.44
2023-02-22T01:40:50.334Z,99661.97
2023-02-22T01:43:29.765Z,99657.50
2023-02-22T01:46:08.495Z,99659.38
2023-02-22T01:48:49.639Z,99654.41
2023-02-22T01:51:19.849Z,99659.91
2023-02-22T01:53:52.934Z,99652.94
2023-02-22T01:56:20.974Z,99651.47
2023-02-22T01:58:54.083Z,99653.13
2023-02-22T02:04:07.745Z,99648.66
2023-02-22T02:06:35.980Z,99650.34
2023-02-22T02:09:30.682Z,99652.72
2023-02-22T02:12:00.970Z,99650.38
2023-02-22T02:14:27.584Z,99656.44
2023-02-22T02:16:56.317Z,99648.50
2023-02-22T02:19:57.060Z,99649.78
2023-02-22T02:22:29.943Z,99643.88
2023-02-22T02:25:37.909Z,99639.06
2023-02-22T02:28:26.436Z,99646.63
2023-02-22T02:31:17.790Z,99644.84
2023-02-22T02:33:54.820Z,99639.22
2023-02-22T02:36:34.354Z,99636.78
2023-02-22T02:39:29.431Z,99635.53
2023-02-22T02:41:58.295Z,99632.06
2023-02-22T02:44:33.124Z,99636.13
2023-02-22T02:47:31.109Z,99633.56
2023-02-22T02:50:07.010Z,99626.75
2023-02-22T02:52:35.475Z,99622.50
2023-02-22T02:55:04.124Z,99620.31
2023-02-22T02:57:30.946Z,99621.22
2023-02-22T02:59:57.537Z,99614.00
2023-02-22T03:02:36.224Z,99615.28
2023-02-22T03:05:15.224Z,99618.38
2023-02-22T03:07:49.448Z,99623.72
2023-02-22T03:10:52.082Z,99614.34
2023-02-22T03:13:43.109Z,99627.91
2023-02-22T03:16:21.312Z,99618.16
2023-02-22T03:18:54.748Z,99618.38
2023-02-22T03:21:28.629Z,99615.13
2023-02-22T03:24:10.048Z,99622.06
2023-02-22T03:27:09.529Z,99621.78
2023-02-22T03:29:39.692Z,99616.19
2023-02-22T03:32:11.675Z,99606.81
2023-02-22T03:34:43.485Z,99605.84
2023-02-22T03:37:19.926Z,99607.03
2023-02-22T03:39:49.019Z,99612.72
2023-02-22T03:42:23.278Z,99622.38
2023-02-22T03:44:52.812Z,99613.75
2023-02-22T03:47:25.888Z,99616.75
2023-02-22T03:50:00.542Z,99620.38
2023-02-22T03:52:27.505Z,99622.94
2023-02-22T03:54:54.145Z,99617.97
2023-02-22T03:57:26.827Z,99619.22
2023-02-22T03:59:53.584Z,99618.25
2023-02-22T04:02:20.820Z,99621.16
2023-02-22T04:04:47.932Z,99626.75
2023-02-22T04:07:15.004Z,99618.78
2023-02-22T04:09:42.237Z,99614.91
2023-02-22T04:12:09.012Z,99617.66
2023-02-22T04:14:35.800Z,99614.66
2023-02-22T04:17:02.324Z,99618.50
2023-02-22T04:19:29.437Z,99623.13
2023-02-22T04:21:56.091Z,99623.56
2023-02-22T04:24:22.662Z,99618.72
2023-02-22T04:26:50.173Z,99615.25
2023-02-22T04:29:16.941Z,99609.97
2023-02-22T04:31:43.539Z,99622.34
2023-02-22T04:34:10.153Z,99615.91
2023-02-22T04:36:36.794Z,99616.91
2023-02-22T04:39:04.244Z,99620.13
2023-02-22T04:41:31.618Z,99616.84
2023-02-22T04:43:58.341Z,99621.31
2023-02-22T04:46:24.933Z,99624.16
2023-02-22T04:48:51.655Z,99624.38
2023-02-22T04:51:19.908Z,99629.38
2023-02-22T04:53:46.724Z,99626.53
2023-02-22T04:56:13.320Z,99631.25
2023-02-22T04:58:40.023Z,99633.81
2023-02-22T05:01:06.552Z,99629.81
2023-02-22T05:03:33.252Z,99628.16
2023-02-22T05:05:59.873Z,99630.69
2023-02-22T05:08:26.578Z,99624.22
2023-02-22T05:10:53.198Z,99621.94
2023-02-22T05:13:19.987Z,99629.97
2023-02-22T05:15:47.861Z,99634.41
2023-02-22T05:18:15.211Z,99627.28
2023-02-22T05:20:41.859Z,99631.72
2023-02-22T05:23:08.705Z,99644.03
2023-02-22T05:25:35.424Z,99636.63
2023-02-22T05:28:05.219Z,99621.66
2023-02-22T05:30:35.595Z,99629.09
2023-02-22T05:33:02.661Z,99628.34
2023-02-22T05:35:29.481Z,99630.00
2023-02-22T05:37:56.591Z,99623.91
2023-02-22T05:40:26.335Z,99622.50
2023-02-22T05:42:53.698Z,99624.66
2023-02-22T05:45:22.812Z,99625.63
2023-02-22T05:47:50.274Z,99634.09
2023-02-22T05:50:19.713Z,99627.09
2023-02-22T05:52:48.732Z,99628.03
2023-02-22T05:55:17.393Z,99627.81
2023-02-22T05:57:44.328Z,99620.28
2023-02-22T06:00:16.506Z,99615.13
2023-02-22T06:02:43.200Z,99614.38
2023-02-22T06:05:09.867Z,99614.56
2023-02-22T06:07:36.451Z,99626.16
2023-02-22T06:10:03.440Z,99625.06
2023-02-22T06:12:30.093Z,99619.66
2023-02-22T06:14:56.716Z,99617.63
2023-02-22T06:17:23.489Z,99625.06
2023-02-22T06:19:50.062Z,99624.66
2023-02-22T06:22:18.327Z,99632.44
2023-02-22T06:24:45.306Z,99623.56
2023-02-22T06:27:12.302Z,99634.03
2023-02-22T06:29:38.934Z,99636.31
2023-02-22T06:32:08.126Z,99627.25
2023-02-22T06:34:34.755Z,99637.59
2023-02-22T06:37:01.304Z,99646.97
2023-02-22T06:39:27.966Z,99649.63
2023-02-22T06:41:56.437Z,99660.13
2023-02-22T06:44:23.865Z,99656.41
2023-02-22T06:46:53.542Z,99660.25
2023-02-22T06:49:20.455Z,99667.28
2023-02-22T06:51:47.773Z,99656.38
2023-02-22T06:54:14.926Z,99670.56
2023-02-22T06:56:41.522Z,99670.03
2023-02-22T06:59:08.599Z,99679.09
2023-02-22T07:01:35.743Z,99664.19
2023-02-22T07:04:03.014Z,99672.28
2023-02-22T07:06:29.665Z,99667.88
2023-02-22T07:08:56.405Z,99671.19
2023-02-22T07:11:23.304Z,99669.34
2023-02-22T07:13:49.997Z,99671.56
2023-02-22T07:16:16.789Z,99687.44
2023-02-22T07:18:43.405Z,99691.28
2023-02-22T07:21:10.779Z,99694.59
2023-02-22T07:23:38.460Z,99691.06
2023-02-22T07:26:05.579Z,99691.88
2023-02-22T07:28:32.264Z,99689.00
2023-02-22T07:30:59.216Z,99695.69
2023-02-22T07:33:26.929Z,99696.44
2023-02-22T07:35:53.618Z,99692.94
2023-02-22T07:38:21.280Z,99695.94
2023-02-22T07:40:47.981Z,99691.47
2023-02-22T07:43:22.586Z,99699.25
2023-02-22T07:45:51.599Z,99700.69
2023-02-22T07:48:19.935Z,99698.50
2023-02-22T07:50:47.396Z,99696.28
2023-02-22T07:53:16.935Z,99697.00
2023-02-22T07:55:43.807Z,99697.19
2023-02-22T07:58:15.242Z,99698.78
2023-02-22T08:00:44.034Z,99705.44
2023-02-22T08:03:13.143Z,99702.88
2023-02-22T08:05:42.869Z,99703.63
2023-02-22T08:08:09.466Z,99701.06
2023-02-22T08:10:36.606Z,99704.97
2023-02-22T08:13:05.219Z,99701.22
2023-02-22T08:15:37.898Z,99703.56
2023-02-22T08:18:09.144Z,99698.75
2023-02-22T08:20:36.870Z,99701.66
2023-02-22T08:23:05.892Z,99692.78
2023-02-22T08:25:32.619Z,99704.38
2023-02-22T08:28:02.112Z,99698.66
2023-02-22T08:30:30.834Z,99706.34
2023-02-22T08:32:58.583Z,99703.31
2023-02-22T08:35:27.535Z,99697.91
2023-02-22T08:37:57.477Z,99707.97
2023-02-22T08:40:26.105Z,99705.84
2023-02-22T08:42:52.708Z,99700.94
2023-02-22T08:45:19.932Z,99711.44
2023-02-22T08:47:47.401Z,99711.22
2023-02-22T08:50:26.912Z,99717.88
2023-02-22T08:52:55.909Z,99717.13
2023-02-22T08:55:28.789Z,99720.50
2023-02-22T08:57:55.538Z,99722.81
2023-02-22T09:00:25.662Z,99724.84
2023-02-22T09:02:53.103Z,99717.19
2023-02-22T09:05:19.989Z,99723.47
2023-02-22T09:07:46.872Z,99723.97
2023-02-22T09:10:16.837Z,99731.31
2023-02-22T09:12:43.481Z,99723.50
2023-02-22T09:15:11.679Z,99726.81
2023-02-22T09:17:38.782Z,99722.03
2023-02-22T09:20:07.439Z,99713.16
2023-02-22T09:22:34.261Z,99718.75
2023-02-22T09:25:11.431Z,99711.91
2023-02-22T09:27:43.746Z,99710.31
2023-02-22T09:30:24.029Z,99716.50
2023-02-22T09:32:55.558Z,99714.88
2023-02-22T09:35:27.320Z,99713.81
2023-02-22T09:37:58.986Z,99710.69
2023-02-22T09:40:31.204Z,99719.63
2023-02-22T09:43:14.241Z,99712.81
2023-02-22T09:45:50.068Z,99720.63
2023-02-22T09:48:22.477Z,99718.41
2023-02-22T09:50:53.072Z,99717.66
2023-02-22T09:53:33.152Z,99720.00
2023-02-22T09:56:06.995Z,99725.28
2023-02-22T09:58:40.226Z,99724.31
2023-02-22T10:01:28.612Z,99725.63
2023-02-22T10:04:23.350Z,99717.28
2023-02-22T10:07:26.145Z,99722.75
2023-02-22T10:09:56.752Z,99725.66
2023-02-22T10:12:47.339Z,99728.66
2023-02-22T10:15:41.900Z,99725.84
2023-02-22T10:18:32.868Z,99726.09
2023-02-22T10:21:11.708Z,99717.72
2023-02-22T10:23:44.257Z,99718.34
2023-02-22T10:26:17.024Z,99725.75
2023-02-22T10:28:55.343Z,99721.94
2023-02-22T10:31:36.542Z,99729.75
2023-02-22T10:34:12.635Z,99722.91
2023-02-22T10:36:39.325Z,99729.25
2023-02-22T10:39:24.511Z,99724.16
2023-02-22T10:41:55.735Z,99734.63
2023-02-22T10:44:22.329Z,99729.38
2023-02-22T10:46:49.843Z,99734.88
2023-02-22T10:49:22.009Z,99731.19
2023-02-22T10:52:01.031Z,99732.34
2023-02-22T10:54:43.015Z,99731.44
2023-02-22T10:57:12.166Z,99730.63
2023-02-22T10:59:41.188Z,99722.72
2023-02-22T11:02:23.564Z,99717.84
2023-02-22T11:04:51.985Z,99719.91
2023-02-22T11:07:21.915Z,99722.88
2023-02-22T11:09:53.196Z,99709.00
2023-02-22T11:12:48.633Z,99708.72
2023-02-22T11:15:19.051Z,99702.34
2023-02-22T11:17:47.685Z,99700.41
2023-02-22T11:20:29.585Z,99700.91
2023-02-22T11:23:01.006Z,99705.19
2023-02-22T11:25:34.959Z,99697.63
2023-02-22T11:28:17.617Z,99702.16
2023-02-22T11:30:51.320Z,99694.56
2023-02-22T11:33:23.939Z,99697.97
2023-02-22T11:36:02.510Z,99698.41
2023-02-22T11:38:34.544Z,99692.94
2023-02-22T11:41:26.326Z,99694.38
2023-02-22T11:43:54.452Z,99686.38
2023-02-22T11:46:29.260Z,99691.34
2023-02-22T11:49:04.811Z,99686.06
2023-02-22T11:51:31.358Z,99682.59
2023-02-22T11:54:28.973Z,99680.22
2023-02-22T11:57:07.308Z,99671.88
2023-02-22T11:59:56.138Z,99673.09
2023-02-22T12:02:28.367Z,99663.06
2023-02-22T12:05:10.148Z,99666.81
2023-02-22T12:07:48.561Z,99664.56
2023-02-22T12:10:18.685Z,99653.16
2023-02-22T12:13:06.399Z,99651.66
2023-02-22T12:15:47.151Z,99655.47
2023-02-22T12:18:16.506Z,99645.44
2023-02-22T12:21:07.995Z,99650.31
2023-02-22T12:23:40.720Z,99648.78
2023-02-22T12:26:34.980Z,99640.91
2023-02-22T12:29:26.613Z,99634.88
2023-02-22T12:32:07.028Z,99639.00
2023-02-22T12:34:41.479Z,99639.88
2023-02-22T12:37:23.904Z,99639.53
2023-02-22T12:39:56.349Z,99632.56
2023-02-22T12:43:01.623Z,99635.94
2023-02-22T12:45:36.916Z,99635.59
2023-02-22T12:48:27.971Z,99624.44
2023-02-22T12:50:59.098Z,99628.13
2023-02-22T12:53:34.911Z,99627.97
2023-02-22T12:56:22.421Z,99628.34
2023-02-22T12:58:55.670Z,99622.09
2023-02-22T13:01:26.917Z,99628.13
2023-02-22T13:03:54.382Z,99622.84
2023-02-22T13:06:21.086Z,99618.59
2023-02-22T13:09:02.407Z,99619.50
2023-02-22T13:11:59.807Z,99620.97
2023-02-22T13:14:26.575Z,99612.31
2023-02-22T13:17:21.527Z,99613.19
2023-02-22T13:19:54.017Z,99608.94
2023-02-22T13:22:47.819Z,99611.75
2023-02-22T13:25:22.822Z,99610.88
2023-02-22T13:27:57.772Z,99613.44
2023-02-22T13:30:36.569Z,99609.78
2023-02-22T13:33:10.738Z,99605.81
2023-02-22T13:35:47.490Z,99603.81
2023-02-22T13:38:35.764Z,99596.91
2023-02-22T13:41:05.688Z,99596.38
2023-02-22T13:44:14.337Z,99593.03
2023-02-22T13:46:44.179Z,99593.19
2023-02-22T13:49:25.586Z,99585.28
2023-02-22T13:51:56.782Z,99588.47
2023-02-22T13:54:35.454Z,99579.56
2023-02-22T13:57:05.358Z,99571.16
2023-02-22T13:59:36.395Z,99578.28
2023-02-22T14:02:08.217Z,99575.16
2023-02-22T16:01:42.028Z,99533.53
2023-02-22T16:04:18.261Z,99534.28
2023-02-22T16:06:45.802Z,99529.16
2023-02-22T16:09:22.978Z,99532.69
2023-02-22T16:11:50.135Z,99528.16
2023-02-22T16:14:39.395Z,99529.22
2023-02-22T16:17:24.922Z,99530.66
2023-02-22T16:19:52.866Z,99522.47
2023-02-22T16:22:35.405Z,99525.38
2023-02-22T16:25:25.255Z,99528.69
2023-02-22T16:27:56.127Z,99525.47
2023-02-22T16:30:55.235Z,99530.63
2023-02-22T16:33:21.968Z,99536.69
2023-02-22T16:35:57.101Z,99543.47
2023-02-22T16:38:27.684Z,99544.94
2023-02-22T16:40:59.425Z,99542.19
2023-02-22T16:43:31.602Z,99539.56
2023-02-22T16:45:58.918Z,99532.50
2023-02-22T16:48:27.473Z,99533.78
2023-02-22T16:50:55.934Z,99531.00
2023-02-22T16:53:25.322Z,99532.00
2023-02-22T16:55:57.833Z,99534.75
2023-02-22T16:58:28.004Z,99533.72
2023-02-22T17:00:57.296Z,99537.13
2023-02-22T17:03:25.483Z,99529.47
2023-02-22T17:05:52.344Z,99529.44
2023-02-22T17:08:19.115Z,99528.69
2023-02-22T17:10:46.518Z,99521.84
2023-02-22T17:13:23.026Z,99512.34
2023-02-22T17:15:51.624Z,99503.84
2023-02-22T17:18:22.987Z,99509.81
2023-02-22T17:20:51.617Z,99511.13
2023-02-22T17:23:20.226Z,99504.19
2023-02-22T17:26:03.358Z,99515.41
2023-02-22T17:28:31.139Z,99515.16
2023-02-22T17:31:01.233Z,99517.19
2023-02-22T17:33:31.304Z,99518.34
2023-02-22T17:36:01.783Z,99525.41
2023-02-22T17:38:30.308Z,99526.72
2023-02-22T17:40:59.030Z,99539.00
2023-02-22T17:43:27.938Z,99537.84
2023-02-22T17:45:55.079Z,99539.16
2023-02-22T17:48:24.029Z,99543.25
2023-02-22T17:50:51.724Z,99548.81
2023-02-22T17:53:21.790Z,99559.66
2023-02-22T17:55:49.514Z,99559.53
2023-02-22T17:58:16.391Z,99553.97
2023-02-22T18:00:46.261Z,99561.00
2023-02-22T18:03:21.814Z,99565.66
2023-02-22T18:05:50.405Z,99568.66
2023-02-22T18:08:17.616Z,99573.31
2023-02-22T18:10:45.520Z,99570.72
2023-02-22T18:13:18.729Z,99560.06
2023-02-22T18:15:46.937Z,99561.06
2023-02-22T18:18:13.691Z,99559.16
2023-02-22T18:20:45.106Z,99559.44
2023-02-22T18:23:16.163Z,99567.34
2023-02-22T18:26:03.728Z,99555.66
2023-02-22T18:28:35.823Z,99559.59
2023-02-22T18:31:07.728Z,99559.22
2023-02-22T18:33:34.313Z,99551.28
2023-02-22T18:36:00.897Z,99554.91
2023-02-22T18:38:27.594Z,99562.53
2023-02-22T18:41:06.261Z,99554.06
2023-02-22T18:43:36.417Z,99557.47
2023-02-22T18:46:10.095Z,99559.69
2023-02-22T18:48:37.585Z,99552.59
2023-02-22T18:51:07.223Z,99542.50
2023-02-22T18:53:33.897Z,99546.16
2023-02-22T18:56:08.880Z,99547.38
2023-02-22T18:58:38.633Z,99540.63
2023-02-22T19:01:07.164Z,99539.31
2023-02-22T19:03:38.126Z,99543.84
2023-02-22T19:06:10.470Z,99545.94
2023-02-22T19:08:42.328Z,99543.94
2023-02-22T19:11:18.004Z,99536.91
2023-02-22T19:13:50.838Z,99542.13
2023-02-22T19:16:22.256Z,99549.66
2023-02-22T19:18:57.097Z,99538.03
2023-02-22T19:21:25.163Z,99542.78
2023-02-22T19:23:51.846Z,99540.44
2023-02-22T19:26:24.227Z,99538.91
2023-02-22T19:28:52.831Z,99535.91
2023-02-22T19:31:26.488Z,99532.91
2023-02-22T19:33:53.507Z,99534.38
2023-02-22T19:36:23.124Z,99535.34
2023-02-22T19:38:49.932Z,99530.34
2023-02-22T19:41:21.927Z,99524.88
2023-02-22T19:43:50.726Z,99532.34
2023-02-22T19:46:17.939Z,99531.47
2023-02-22T19:48:48.716Z,99528.75
2023-02-22T19:51:17.182Z,99531.81
2023-02-22T19:53:44.923Z,99529.94
2023-02-22T19:56:16.321Z,99525.34
2023-02-22T19:58:44.673Z,99527.50
2023-02-22T20:01:12.592Z,99527.06
2023-02-22T20:03:39.604Z,99521.66
2023-02-22T20:06:09.200Z,99527.06
2023-02-22T20:08:37.317Z,99524.53
2023-02-22T20:11:05.814Z,99518.88
2023-02-22T20:13:33.537Z,99526.19
2023-02-22T20:16:00.613Z,99520.88
2023-02-22T20:18:27.235Z,99522.19
2023-02-22T20:20:53.914Z,99508.88
2023-02-22T20:23:20.602Z,99515.63
2023-02-22T20:25:57.038Z,99518.25
2023-02-22T20:28:24.290Z,99521.50
2023-02-22T20:30:51.779Z,99517.56
2023-02-22T20:33:22.074Z,99519.16
2023-02-22T20:35:48.839Z,99512.28
2023-02-22T20:38:15.492Z,99515.69
2023-02-22T20:40:42.595Z,99516.13
2023-02-22T20:43:10.045Z,99514.22
2023-02-22T20:45:37.690Z,99519.06
2023-02-22T20:48:05.410Z,99522.84
2023-02-22T20:50:33.175Z,99518.72
2023-02-22T20:52:59.790Z,99523.16
2023-02-22T20:55:26.627Z,99531.81
2023-02-22T20:57:53.358Z,99524.22
2023-02-22T21:00:19.996Z,99520.53
2023-02-22T21:02:46.989Z,99518.00
2023-02-22T21:05:16.487Z,99523.75
2023-02-22T21:07:43.127Z,99511.25
2023-02-22T21:10:09.871Z,99524.72
2023-02-22T21:12:36.758Z,99521.50
2023-02-22T21:15:03.706Z,99528.41
2023-02-22T21:17:30.978Z,99514.53
2023-02-22T21:19:58.647Z,99515.88
2023-02-22T21:22:25.393Z,99505.88
2023-02-22T21:24:52.253Z,99512.03
2023-02-22T21:27:19.223Z,99513.94
2023-02-22T21:29:45.859Z,99508.03
2023-02-22T21:32:13.960Z,99513.56
2023-02-22T21:34:40.947Z,99516.63
2023-02-22T21:37:08.402Z,99509.50
2023-02-22T21:39:35.576Z,99508.69
2023-02-22T21:42:02.639Z,99502.81
2023-02-22T21:44:29.973Z,99501.81
2023-02-22T21:46:58.133Z,99499.50
2023-02-22T21:49:26.360Z,99500.53
2023-02-22T21:51:53.047Z,99501.09
2023-02-22T21:54:20.102Z,99503.66
2023-02-22T21:56:46.812Z,99505.84
2023-02-22T21:59:18.815Z,99508.47
2023-02-22T22:01:48.256Z,99502.44
2023-02-22T22:04:20.212Z,99497.56
2023-02-22T22:06:49.149Z,99497.44
2023-02-22T22:09:18.738Z,99499.94
2023-02-22T22:11:50.857Z,99495.69
2023-02-22T22:14:23.168Z,99494.22
2023-02-22T22:16:51.503Z,99493.47
2023-02-22T22:19:18.338Z,99493.91
2023-02-22T22:21:46.720Z,99495.91
2023-02-22T22:24:13.503Z,99493.97
2023-02-22T22:26:40.405Z,99487.63
2023-02-22T22:29:10.487Z,99490.69
2023-02-22T22:31:37.638Z,99485.59
2023-02-22T22:34:05.028Z,99488.66
2023-02-22T22:36:31.868Z,99486.31
2023-02-22T22:38:58.474Z,99484.00
2023-02-22T22:41:28.241Z,99480.59
2023-02-22T22:43:55.512Z,99480.69
2023-02-22T22:46:22.272Z,99470.94
2023-02-22T22:48:48.942Z,99481.44
2023-02-22T22:51:20.440Z,99483.81
2023-02-22T22:53:49.150Z,99477.13
2023-02-22T22:56:26.966Z,99477.47
2023-02-22T22:58:56.158Z,99478.22
2023-02-22T23:01:28.666Z,99475.41
2023-02-22T23:04:03.669Z,99475.28
2023-02-22T23:06:43.950Z,99472.94
2023-02-22T23:09:19.564Z,99468.69
2023-02-22T23:11:51.033Z,99476.28
2023-02-22T23:14:20.734Z,99474.00
2023-02-22T23:16:53.074Z,99471.50
2023-02-22T23:19:20.292Z,99486.16
2023-02-22T23:21:48.550Z,99479.56
2023-02-22T23:24:17.699Z,99483.25
2023-02-22T23:26:48.741Z,99472.09
2023-02-22T23:29:20.713Z,99474.69
2023-02-22T23:31:48.706Z,99471.22
2023-02-22T23:34:21.487Z,99481.22
2023-02-22T23:36:48.819Z,99473.38
2023-02-22T23:39:17.985Z,99472.19
2023-02-22T23:41:44.689Z,99470.72
2023-02-22T23:44:17.425Z,99460.69
2023-02-22T23:46:57.084Z,99461.03
2023-02-22T23:55:20.917Z,99460.81
2023-02-22T23:57:48.629Z,99454.94
